createdAt,value
2023-05-04T00:02:21.116Z,99751.78
2023-05-04T00:04:48.219Z,99747.91
2023-05-04T00:07:15.141Z,99738.13
2023-05-04T00:09:41.975Z,99739.63
2023-05-04T00:12:09.358Z,99731.34
2023-05-04T00:14:37.598Z,99733.28
2023-05-04T00:17:06.773Z,99736.75
2023-05-04T00:19:34.785Z,99740.75
2023-05-04T00:22:02.107Z,99742.13
2023-05-04T00:24:29.463Z,99742.75
2023-05-04T00:26:56.334Z,99730.72
2023-05-04T00:29:23.322Z,99728.28
2023-05-04T00:31:50.868Z,99722.56
2023-05-04T00:34:18.507Z,99714.63
2023-05-04T00:36:46.480Z,99707.03
2023-05-04T00:39:13.916Z,99698.38
2023-05-04T00:41:41.160Z,99688.97
2023-05-04T00:44:08.011Z,99678.75
2023-05-04T00:46:37.961Z,99686.97
2023-05-04T00:49:07.752Z,99679.94
2023-05-04T00:51:36.054Z,99678.19
2023-05-04T00:54:03.220Z,99678.69
2023-05-04T00:56:31.077Z,99678.81
2023-05-04T00:58:58.594Z,99701.13
2023-05-04T01:01:26.224Z,99701.81
2023-05-04T01:03:55.322Z,99688.00
2023-05-04T01:06:44.209Z,99675.97
2023-05-04T01:09:18.122Z,99666.19
2023-05-04T01:11:58.842Z,99667.69
2023-05-04T01:14:27.233Z,99671.25
2023-05-04T01:16:58.002Z,99676.78
2023-05-04T01:19:27.635Z,99683.22
2023-05-04T01:21:54.746Z,99681.97
2023-05-04T01:24:22.252Z,99667.50
2023-05-04T01:26:55.775Z,99680.22
2023-05-04T01:29:28.564Z,99684.97
2023-05-04T01:31:57.191Z,99681.53
2023-05-04T01:34:24.077Z,99690.63
2023-05-04T01:36:52.006Z,99672.88
2023-05-04T01:39:18.840Z,99669.00
2023-05-04T01:41:45.621Z,99666.72
2023-05-04T01:44:12.646Z,99655.38
2023-05-04T01:46:39.789Z,99638.88
2023-05-04T01:49:08.052Z,99639.16
2023-05-04T01:51:35.055Z,99615.25
2023-05-04T01:54:02.067Z,99603.31
2023-05-04T01:56:29.144Z,99611.75
2023-05-04T01:58:56.132Z,99613.56
2023-05-04T02:01:23.161Z,99606.44
2023-05-04T02:03:50.117Z,99611.94
2023-05-04T02:06:17.215Z,99594.41
2023-05-04T02:08:44.104Z,99587.06
2023-05-04T02:11:11.322Z,99590.53
2023-05-04T02:13:38.646Z,99588.41
2023-05-04T02:16:06.761Z,99578.50
2023-05-04T02:18:33.717Z,99591.78
2023-05-04T02:21:00.957Z,99569.19
2023-05-04T02:23:27.743Z,99573.09
2023-05-04T02:25:55.972Z,99579.72
2023-05-04T02:28:23.858Z,99579.72
2023-05-04T02:30:50.973Z,99578.81
2023-05-04T02:33:17.824Z,99579.63
2023-05-04T02:35:44.604Z,99582.38
2023-05-04T02:38:11.384Z,99574.03
2023-05-04T02:40:39.864Z,99568.84
2023-05-04T02:43:06.726Z,99581.34
2023-05-04T02:45:35.249Z,99564.09
2023-05-04T02:48:02.588Z,99579.00
2023-05-04T02:50:31.188Z,99584.44
2023-05-04T02:52:58.902Z,99587.19
2023-05-04T02:55:25.854Z,99588.94
2023-05-04T02:57:52.777Z,99565.28
2023-05-04T03:00:19.748Z,99596.16
2023-05-04T03:02:47.100Z,99590.19
2023-05-04T03:05:14.188Z,99596.34
2023-05-04T03:07:40.981Z,99599.72
2023-05-04T03:10:09.337Z,99607.91
2023-05-04T03:12:36.339Z,99596.66
2023-05-04T03:15:03.594Z,99595.22
2023-05-04T03:17:31.366Z,99601.34
2023-05-04T03:19:58.463Z,99608.00
2023-05-04T03:22:26.854Z,99590.84
2023-05-04T03:24:54.563Z,99587.13
2023-05-04T03:27:21.537Z,99600.09
2023-05-04T03:29:48.516Z,99598.66
2023-05-04T03:32:16.076Z,99588.25
2023-05-04T03:34:45.679Z,99605.28
2023-05-04T03:37:13.430Z,99596.53
2023-05-04T03:39:40.581Z,99598.41
2023-05-04T03:42:08.366Z,99630.84
2023-05-04T03:44:35.183Z,99626.16
2023-05-04T03:47:02.152Z,99621.59
2023-05-04T03:49:29.953Z,99631.34
2023-05-04T03:51:57.118Z,99632.94
2023-05-04T03:54:24.616Z,99609.19
2023-05-04T03:56:51.683Z,99623.34
2023-05-04T03:59:18.524Z,99605.47
2023-05-04T04:01:46.251Z,99606.66
2023-05-04T04:04:13.199Z,99607.19
2023-05-04T04:06:41.933Z,99601.69
2023-05-04T04:09:10.274Z,99606.56
2023-05-04T04:11:37.175Z,99613.91
2023-05-04T04:14:04.261Z,99627.25
2023-05-04T04:16:31.446Z,99615.66
2023-05-04T04:18:58.565Z,99618.66
2023-05-04T04:21:25.370Z,99611.00
2023-05-04T04:23:52.496Z,99616.38
2023-05-04T04:26:20.413Z,99611.50
2023-05-04T04:28:50.725Z,99610.88
2023-05-04T04:31:18.945Z,99631.97
2023-05-04T04:33:47.520Z,99609.56
2023-05-04T04:36:16.822Z,99601.63
2023-05-04T04:38:44.566Z,99595.81
2023-05-04T04:41:11.830Z,99594.69
2023-05-04T04:43:38.976Z,99606.56
2023-05-04T04:46:05.816Z,99618.25
2023-05-04T04:48:32.978Z,99624.09
2023-05-04T04:51:00.060Z,99626.72
2023-05-04T04:53:27.107Z,99627.72
2023-05-04T04:55:54.704Z,99611.78
2023-05-04T04:58:22.191Z,99623.81
2023-05-04T05:00:49.092Z,99628.38
2023-05-04T05:03:22.813Z,99625.97
2023-05-04T05:05:50.052Z,99618.50
2023-05-04T05:08:17.148Z,99603.41
2023-05-04T05:10:44.271Z,99632.78
2023-05-04T05:13:11.169Z,99624.00
2023-05-04T05:15:38.157Z,99613.78
2023-05-04T05:18:05.026Z,99616.72
2023-05-04T05:20:31.944Z,99616.59
2023-05-04T05:22:59.139Z,99626.28
2023-05-04T05:25:26.174Z,99627.72
2023-05-04T05:27:53.273Z,99640.19
2023-05-04T05:30:20.328Z,99640.03
2023-05-04T05:32:49.195Z,99638.25
2023-05-04T05:35:16.753Z,99661.78
2023-05-04T05:37:43.557Z,99673.97
2023-05-04T05:40:10.954Z,99663.72
2023-05-04T05:42:37.846Z,99650.75
2023-05-04T05:45:05.313Z,99636.19
2023-05-04T05:47:32.246Z,99647.38
2023-05-04T05:49:59.238Z,99654.38
2023-05-04T05:52:26.370Z,99651.81
2023-05-04T05:54:53.567Z,99641.91
2023-05-04T05:57:20.808Z,99637.03
2023-05-04T05:59:47.952Z,99659.78
2023-05-04T06:02:15.361Z,99669.19
2023-05-04T06:04:43.265Z,99660.44
2023-05-04T06:07:10.474Z,99646.16
2023-05-04T06:09:37.385Z,99655.78
2023-05-04T06:12:06.806Z,99643.78
2023-05-04T06:14:33.809Z,99645.56
2023-05-04T06:17:00.801Z,99648.88
2023-05-04T06:19:29.576Z,99643.81
2023-05-04T06:21:57.841Z,99652.78
2023-05-04T06:24:26.975Z,99663.94
2023-05-04T06:26:54.004Z,99657.00
2023-05-04T06:29:20.789Z,99658.13
2023-05-04T06:31:48.463Z,99658.28
2023-05-04T06:34:19.240Z,99664.31
2023-05-04T06:36:46.019Z,99659.09
2023-05-04T06:39:13.016Z,99654.38
2023-05-04T06:41:39.829Z,99651.78
2023-05-04T06:44:07.004Z,99656.81
2023-05-04T06:46:39.886Z,99662.97
2023-05-04T06:49:06.852Z,99658.91
2023-05-04T06:51:37.506Z,99663.13
2023-05-04T06:54:04.304Z,99668.31
2023-05-04T06:56:31.425Z,99664.00
2023-05-04T06:58:58.350Z,99674.81
2023-05-04T07:01:25.452Z,99667.44
2023-05-04T07:03:52.595Z,99680.69
2023-05-04T07:06:20.272Z,99680.56
2023-05-04T07:08:47.063Z,99675.31
2023-05-04T07:11:14.295Z,99671.16
2023-05-04T07:13:41.206Z,99673.66
2023-05-04T07:16:09.278Z,99679.50
2023-05-04T07:18:36.441Z,99681.13
2023-05-04T07:21:21.921Z,99679.97
2023-05-04T07:23:52.208Z,99675.03
2023-05-04T07:26:19.468Z,99684.81
2023-05-04T07:28:46.776Z,99682.75
2023-05-04T07:31:14.566Z,99686.91
2023-05-04T07:33:42.104Z,99684.09
2023-05-04T07:36:09.302Z,99688.50
2023-05-04T07:38:36.684Z,99687.78
2023-05-04T07:41:03.827Z,99688.41
2023-05-04T07:43:30.737Z,99690.03
2023-05-04T07:45:57.941Z,99692.22
2023-05-04T07:48:26.448Z,99693.25
2023-05-04T07:50:54.292Z,99698.38
2023-05-04T07:53:21.715Z,99692.69
2023-05-04T07:55:48.895Z,99691.31
2023-05-04T07:58:16.748Z,99676.22
2023-05-04T08:00:44.073Z,99689.66
2023-05-04T08:03:11.676Z,99686.34
2023-05-04T08:05:38.740Z,99688.75
2023-05-04T08:08:05.784Z,99679.81
2023-05-04T08:10:36.972Z,99675.78
2023-05-04T08:13:05.605Z,99677.06
2023-05-04T08:15:32.714Z,99684.88
2023-05-04T08:17:59.820Z,99689.53
2023-05-04T08:20:26.902Z,99688.22
2023-05-04T08:22:53.869Z,99684.03
2023-05-04T08:25:22.276Z,99680.50
2023-05-04T08:27:49.581Z,99687.88
2023-05-04T08:30:17.416Z,99692.31
2023-05-04T08:32:44.435Z,99674.19
2023-05-04T08:35:11.489Z,99677.59
2023-05-04T08:37:38.297Z,99667.53
2023-05-04T08:40:06.026Z,99664.59
2023-05-04T08:42:33.415Z,99674.59
2023-05-04T08:45:01.401Z,99655.44
2023-05-04T08:47:29.804Z,99671.25
2023-05-04T08:49:56.856Z,99664.41
2023-05-04T08:52:25.605Z,99661.59
2023-05-04T08:54:57.055Z,99653.75
2023-05-04T08:57:25.233Z,99649.03
2023-05-04T08:59:53.943Z,99647.22
2023-05-04T09:02:23.829Z,99645.06
2023-05-04T09:04:52.831Z,99642.06
2023-05-04T09:07:21.395Z,99649.84
2023-05-04T09:09:50.921Z,99647.94
2023-05-04T09:12:19.423Z,99644.84
2023-05-04T09:14:46.894Z,99639.25
2023-05-04T09:17:17.799Z,99638.75
2023-05-04T09:19:44.959Z,99641.91
2023-05-04T09:22:17.547Z,99628.22
2023-05-04T09:24:46.400Z,99629.06
2023-05-04T09:27:18.760Z,99617.34
2023-05-04T09:29:54.017Z,99620.88
2023-05-04T09:32:21.058Z,99610.16
2023-05-04T09:34:53.171Z,99617.94
2023-05-04T09:37:21.521Z,99613.81
2023-05-04T09:39:56.404Z,99615.88
2023-05-04T09:42:24.768Z,99615.75
2023-05-04T09:45:00.022Z,99605.41
2023-05-04T09:47:33.793Z,99605.16
2023-05-04T09:50:25.541Z,99587.16
2023-05-04T09:52:53.700Z,99601.06
2023-05-04T09:55:20.876Z,99600.19
2023-05-04T09:57:49.695Z,99583.59
2023-05-04T10:00:17.916Z,99585.72
2023-05-04T10:02:46.496Z,99600.19
2023-05-04T10:05:18.833Z,99583.59
2023-05-04T10:07:46.852Z,99591.94
2023-05-04T10:10:15.209Z,99585.31
2023-05-04T10:12:45.193Z,99576.47
2023-05-04T10:15:13.087Z,99584.16
2023-05-04T10:17:51.865Z,99575.28
2023-05-04T10:20:33.834Z,99581.50
2023-05-04T10:23:16.303Z,99580.00
2023-05-04T10:26:17.851Z,99573.53
2023-05-04T10:28:57.970Z,99565.53
2023-05-04T10:31:25.748Z,99554.34
2023-05-04T10:33:54.089Z,99571.31
2023-05-04T10:36:21.477Z,99570.25
2023-05-04T10:38:48.492Z,99573.19
2023-05-04T10:41:19.658Z,99553.66
2023-05-04T10:43:53.402Z,99566.22
2023-05-04T10:46:21.584Z,99558.09
2023-05-04T10:48:48.872Z,99569.41
2023-05-04T10:51:35.647Z,99562.13
2023-05-04T10:54:06.008Z,99547.69
2023-05-04T10:56:32.812Z,99557.66
2023-05-04T10:59:09.253Z,99558.38
2023-05-04T11:01:44.792Z,99554.59
2023-05-04T11:04:20.855Z,99550.47
2023-05-04T11:07:08.857Z,99555.81
2023-05-04T11:09:42.103Z,99552.13
2023-05-04T11:12:12.425Z,99552.59
2023-05-04T11:14:43.461Z,99546.44
2023-05-04T11:17:27.537Z,99546.91
2023-05-04T11:19:55.903Z,99545.38
2023-05-04T11:22:23.097Z,99551.63
2023-05-04T11:24:50.043Z,99544.84
2023-05-04T11:27:28.803Z,99546.13
2023-05-04T11:30:03.113Z,99550.31
2023-05-04T11:32:42.891Z,99551.31
2023-05-04T11:35:22.911Z,99546.53
2023-05-04T11:37:50.725Z,99549.31
2023-05-04T11:40:26.028Z,99545.88
2023-05-04T11:42:56.924Z,99534.69
2023-05-04T11:45:30.161Z,99538.66
2023-05-04T11:47:58.772Z,99540.66
2023-05-04T11:50:27.228Z,99537.53
2023-05-04T11:53:09.456Z,99540.28
2023-05-04T11:55:39.910Z,99543.06
2023-05-04T11:58:11.937Z,99538.84
2023-05-04T12:00:44.271Z,99535.19
2023-05-04T12:03:25.950Z,99533.41
2023-05-04T12:05:58.130Z,99532.97
2023-05-04T12:08:36.416Z,99525.91
2023-05-04T12:11:25.937Z,99523.09
2023-05-04T12:14:07.335Z,99523.09
2023-05-04T12:16:34.612Z,99516.28
2023-05-04T12:19:11.414Z,99525.22
2023-05-04T12:21:51.183Z,99523.78
2023-05-04T12:24:18.201Z,99512.81
2023-05-04T12:26:45.143Z,99503.34
2023-05-04T12:29:12.188Z,99510.28
2023-05-04T12:31:39.089Z,99509.09
2023-05-04T12:34:06.179Z,99502.53
2023-05-04T12:36:34.351Z,99503.44
2023-05-04T12:39:01.847Z,99497.28
2023-05-04T12:41:28.713Z,99510.50
2023-05-04T12:43:55.982Z,99498.78
2023-05-04T12:46:23.100Z,99496.41
2023-05-04T12:48:50.207Z,99501.53
2023-05-04T12:51:17.065Z,99498.03
2023-05-04T12:53:44.334Z,99490.75
2023-05-04T12:56:11.128Z,99492.69
2023-05-04T12:58:38.089Z,99489.53
2023-05-04T13:01:05.223Z,99486.69
2023-05-04T13:03:33.104Z,99490.41
2023-05-04T13:06:00.157Z,99483.59
2023-05-04T13:08:27.074Z,99482.50
2023-05-04T13:10:53.996Z,99478.31
2023-05-04T13:13:24.625Z,99461.31
2023-05-04T13:15:51.864Z,99465.97
2023-05-04T13:18:19.000Z,99469.59
2023-05-04T13:20:46.270Z,99478.00
2023-05-04T13:23:14.146Z,99476.06
2023-05-04T13:25:41.130Z,99477.72
2023-05-04T13:28:07.938Z,99462.75
2023-05-04T13:30:35.065Z,99475.59
2023-05-04T13:33:07.694Z,99473.47
2023-05-04T13:35:43.424Z,99487.88
2023-05-04T13:38:10.920Z,99476.63
2023-05-04T13:40:38.075Z,99472.88
2023-05-04T13:43:04.892Z,99461.66
2023-05-04T13:45:32.436Z,99464.00
2023-05-04T13:48:00.184Z,99466.41
2023-05-04T13:50:27.298Z,99462.38
2023-05-04T13:52:54.228Z,99471.50
2023-05-04T13:55:21.384Z,99466.66
2023-05-04T13:57:48.726Z,99467.91
2023-05-04T14:00:17.868Z,99460.56
2023-05-04T14:02:45.535Z,99472.25
2023-05-04T14:05:12.960Z,99467.19
2023-05-04T14:07:43.116Z,99468.72
2023-05-04T14:10:10.417Z,99453.50
2023-05-04T14:12:37.324Z,99458.00
2023-05-04T14:15:04.834Z,99469.81
2023-05-04T14:17:31.971Z,99466.94
2023-05-04T14:19:59.063Z,99464.03
2023-05-04T14:22:26.154Z,99466.53
2023-05-04T14:24:53.167Z,99465.78
2023-05-04T14:27:21.120Z,99458.53
2023-05-04T14:29:48.097Z,99458.06
2023-05-04T14:32:15.312Z,99475.03
2023-05-04T14:34:42.211Z,99462.91
2023-05-04T14:37:09.208Z,99469.81
2023-05-04T14:39:36.691Z,99471.44
2023-05-04T14:42:03.994Z,99479.38
2023-05-04T14:44:30.996Z,99481.72
2023-05-04T14:46:58.013Z,99484.94
2023-05-04T14:49:36.010Z,99478.44
2023-05-04T14:52:04.589Z,99465.47
2023-05-04T14:54:31.498Z,99481.91
2023-05-04T14:56:59.080Z,99468.88
2023-05-04T14:59:26.275Z,99480.31
2023-05-04T15:01:55.043Z,99493.31
2023-05-04T15:04:22.671Z,99487.44
2023-05-04T15:06:49.784Z,99479.53
2023-05-04T15:09:16.818Z,99493.06
2023-05-04T15:11:43.822Z,99496.41
2023-05-04T15:14:11.199Z,99500.19
2023-05-04T15:16:38.414Z,99499.91
2023-05-04T15:19:05.426Z,99504.88
2023-05-04T15:21:32.471Z,99499.25
2023-05-04T15:23:59.500Z,99510.91
2023-05-04T15:26:26.622Z,99510.16
2023-05-04T15:28:54.210Z,99499.63
2023-05-04T15:31:21.824Z,99502.78
2023-05-04T15:33:49.094Z,99484.53
2023-05-04T15:36:16.176Z,99492.63
2023-05-04T15:38:43.716Z,99488.22
2023-05-04T15:41:11.018Z,99502.00
2023-05-04T15:43:37.860Z,99491.34
2023-05-04T15:46:04.862Z,99491.00
2023-05-04T15:48:31.850Z,99495.59
2023-05-04T15:50:58.806Z,99499.50
2023-05-04T15:53:25.876Z,99504.81
2023-05-04T15:55:53.276Z,99512.81
2023-05-04T15:58:20.072Z,99510.16
2023-05-04T16:00:47.369Z,99520.34
2023-05-04T16:03:14.413Z,99521.75
2023-05-04T16:05:41.499Z,99515.88
2023-05-04T16:08:08.349Z,99530.31
2023-05-04T16:10:35.361Z,99520.38
2023-05-04T16:13:04.443Z,99531.50
2023-05-04T16:15:31.537Z,99530.94
2023-05-04T16:17:58.407Z,99524.34
2023-05-04T16:20:27.070Z,99536.41
2023-05-04T16:22:53.984Z,99534.06
2023-05-04T16:25:21.057Z,99541.13
2023-05-04T16:27:48.013Z,99539.66
2023-05-04T16:30:15.869Z,99543.22
2023-05-04T16:32:42.854Z,99561.06
2023-05-04T16:35:09.891Z,99551.69
2023-05-04T16:37:39.857Z,99546.13
2023-05-04T16:40:15.151Z,99555.63
2023-05-04T16:42:43.609Z,99564.28
2023-05-04T16:45:12.037Z,99566.63
2023-05-04T16:47:45.040Z,99566.63
2023-05-04T16:50:13.481Z,99567.69
2023-05-04T16:52:41.144Z,99569.53
2023-05-04T16:55:11.308Z,99569.88
2023-05-04T16:57:38.937Z,99579.72
2023-05-04T17:00:07.120Z,99579.72
2023-05-04T17:02:35.305Z,99591.97
2023-05-04T17:05:04.678Z,99589.88
2023-05-04T17:07:31.805Z,99595.19
2023-05-04T17:09:58.747Z,99606.31
2023-05-04T17:12:25.702Z,99606.44
2023-05-04T17:14:52.841Z,99611.72
2023-05-04T17:17:19.779Z,99624.59
2023-05-04T17:19:47.844Z,99619.59
2023-05-04T17:22:15.026Z,99623.66
2023-05-04T17:24:44.780Z,99623.19
2023-05-04T17:27:13.024Z,99618.31
2023-05-04T17:29:41.207Z,99626.78
2023-05-04T17:32:08.780Z,99633.72
2023-05-04T17:34:36.469Z,99631.50
2023-05-04T17:37:03.806Z,99634.97
2023-05-04T17:39:31.757Z,99637.50
2023-05-04T17:41:59.170Z,99631.00
2023-05-04T17:44:50.257Z,99642.66
2023-05-04T17:47:17.111Z,99640.91
2023-05-04T17:49:44.084Z,99628.41
2023-05-04T17:52:13.091Z,99639.38
2023-05-04T17:54:41.110Z,99648.50
2023-05-04T17:57:08.165Z,99651.41
2023-05-04T17:59:35.146Z,99659.94
2023-05-04T18:02:03.303Z,99656.91
2023-05-04T18:04:32.295Z,99663.97
2023-05-04T18:06:59.681Z,99660.44
2023-05-04T18:09:27.009Z,99677.16
2023-05-04T18:11:54.176Z,99680.13
2023-05-04T18:14:21.105Z,99678.84
2023-05-04T18:17:04.213Z,99684.06
2023-05-04T18:19:34.301Z,99673.38
2023-05-04T18:22:01.134Z,99686.06
2023-05-04T18:24:28.069Z,99684.50
2023-05-04T18:26:55.139Z,99700.94
2023-05-04T18:29:22.112Z,99690.06
2023-05-04T18:31:49.243Z,99690.06
2023-05-04T18:34:16.503Z,99693.16
2023-05-04T18:36:43.355Z,99685.38
2023-05-04T18:39:10.932Z,99694.16
2023-05-04T18:41:37.878Z,99698.13
2023-05-04T18:44:15.549Z,99691.97
2023-05-04T18:46:42.508Z,99693.13
2023-05-04T18:49:09.410Z,99694.47
2023-05-04T18:51:36.836Z,99708.47
2023-05-04T18:54:04.249Z,99704.88
2023-05-04T18:56:31.954Z,99715.81
2023-05-04T18:58:58.752Z,99718.00
2023-05-04T19:01:28.178Z,99714.84
2023-05-04T19:03:55.209Z,99720.81
2023-05-04T19:06:22.229Z,99716.59
2023-05-04T19:08:49.725Z,99726.34
2023-05-04T19:11:18.025Z,99726.88
2023-05-04T19:13:46.259Z,99726.19
2023-05-04T19:16:13.949Z,99721.31
2023-05-04T19:18:41.255Z,99728.97
2023-05-04T19:21:08.089Z,99727.38
2023-05-04T19:23:35.370Z,99737.47
2023-05-04T19:26:03.096Z,99733.56
2023-05-04T19:28:33.973Z,99737.34
2023-05-04T19:31:02.638Z,99737.53
2023-05-04T19:33:40.432Z,99738.00
2023-05-04T19:36:14.615Z,99735.91
2023-05-04T19:38:41.577Z,99733.78
2023-05-04T19:41:09.346Z,99732.81
2023-05-04T19:43:38.459Z,99744.38
2023-05-04T19:46:05.767Z,99742.75
2023-05-04T19:48:33.075Z,99732.81
2023-05-04T19:51:00.094Z,99737.84
2023-05-04T19:53:27.040Z,99729.53
2023-05-04T19:55:54.179Z,99725.47
2023-05-04T19:58:22.260Z,99717.34
2023-05-04T20:00:49.539Z,99733.63
2023-05-04T20:03:17.917Z,99733.97
2023-05-04T20:06:11.138Z,99733.84
2023-05-04T20:08:50.773Z,99732.25
2023-05-04T20:11:17.651Z,99734.69
2023-05-04T20:13:44.684Z,99737.13
2023-05-04T20:16:12.981Z,99734.88
2023-05-04T20:18:39.889Z,99731.28
2023-05-04T20:21:12.679Z,99736.47
2023-05-04T20:23:39.756Z,99737.13
2023-05-04T20:26:06.660Z,99744.63
2023-05-04T20:28:33.666Z,99731.28
2023-05-04T20:31:01.051Z,99731.78
2023-05-04T20:33:28.239Z,99741.03
2023-05-04T20:35:55.242Z,99742.66
2023-05-04T20:38:22.359Z,99757.66
2023-05-04T20:40:50.436Z,99755.53
2023-05-04T20:43:19.323Z,99754.72
2023-05-04T20:45:46.115Z,99751.63
2023-05-04T20:48:12.988Z,99760.56
2023-05-04T20:50:40.502Z,99754.22
2023-05-04T20:53:07.415Z,99756.00
2023-05-04T20:55:34.466Z,99765.78
2023-05-04T20:58:01.545Z,99764.81
2023-05-04T21:00:29.064Z,99755.69
2023-05-04T21:02:56.150Z,99763.66
2023-05-04T21:05:23.183Z,99763.81
2023-05-04T21:07:52.257Z,99763.66
2023-05-04T21:10:20.081Z,99758.47
2023-05-04T21:12:47.383Z,99765.78
2023-05-04T21:15:14.456Z,99763.50
2023-05-04T21:17:41.459Z,99762.19
2023-05-04T21:20:09.523Z,99775.22
2023-05-04T21:22:38.568Z,99774.41
2023-05-04T21:25:06.462Z,99768.22
2023-05-04T21:27:33.424Z,99766.75
2023-05-04T21:30:00.522Z,99771.16
2023-05-04T21:32:30.529Z,99771.16
2023-05-04T21:34:57.565Z,99771.47
2023-05-04T21:37:24.408Z,99773.44
2023-05-04T21:39:57.663Z,99782.06
2023-05-04T21:42:24.639Z,99783.50
2023-05-04T21:44:56.099Z,99777.97
2023-05-04T21:47:23.235Z,99768.53
2023-05-04T21:49:54.297Z,99778.97
2023-05-04T21:52:21.497Z,99771.81
2023-05-04T21:54:48.596Z,99777.97
2023-05-04T21:57:15.714Z,99774.56
2023-05-04T21:59:43.111Z,99775.06
2023-05-04T22:02:10.147Z,99773.91
2023-05-04T22:04:37.528Z,99758.28
2023-05-04T22:07:04.438Z,99766.09
2023-05-04T22:09:31.746Z,99773.91
2023-05-04T22:11:58.792Z,99757.31
2023-05-04T22:14:26.128Z,99772.94
2023-05-04T22:16:53.285Z,99725.09
2023-05-04T22:19:20.282Z,99765.78
2023-05-04T22:21:47.167Z,99767.41
2023-05-04T22:24:14.143Z,99757.66
2023-05-04T22:26:41.182Z,99761.22
2023-05-04T22:29:07.983Z,99755.53
2023-05-04T22:31:34.949Z,99760.09
2023-05-04T22:34:01.940Z,99759.44
2023-05-04T22:36:28.899Z,99762.38
2023-05-04T22:38:55.902Z,99761.22
2023-05-04T22:41:22.934Z,99755.19
2023-05-04T22:43:49.716Z,99760.91
2023-05-04T22:46:19.792Z,99756.03
2023-05-04T22:48:46.999Z,99756.66
2023-05-04T22:51:14.705Z,99751.94
2023-05-04T22:53:41.669Z,99745.75
2023-05-04T22:56:09.088Z,99744.78
2023-05-04T22:58:35.886Z,99744.78
2023-05-04T23:01:02.943Z,99749.03
2023-05-04T23:03:30.175Z,99754.22
2023-05-04T23:06:01.015Z,99744.97
2023-05-04T23:08:27.925Z,99728.69
2023-05-04T23:10:54.848Z,99732.91
2023-05-04T23:13:22.022Z,99732.91
2023-05-04T23:15:48.828Z,99723.97
2023-05-04T23:18:16.354Z,99737.78
2023-05-04T23:20:44.096Z,99734.22
2023-05-04T23:23:11.441Z,99726.41
2023-05-04T23:25:41.433Z,99731.28
2023-05-04T23:28:08.319Z,99724.47
2023-05-04T23:30:35.611Z,99722.00
2023-05-04T23:33:03.818Z,99720.72
2023-05-04T23:35:31.757Z,99721.53
2023-05-04T23:37:58.508Z,99715.03
2023-05-04T23:40:25.762Z,99720.06
2023-05-04T23:42:52.623Z,99724.28
2023-05-04T23:45:19.872Z,99723.97
2023-05-04T23:47:46.830Z,99717.78
2023-05-04T23:50:13.942Z,99716.97
2023-05-04T23:52:40.866Z,99727.53
2023-05-04T23:55:08.004Z,99705.75
2023-05-04T23:57:35.064Z,99707.88
